createdAt,value
2023-08-03T00:00:01.197Z,17.5
2023-08-03T00:03:01.439Z,17.5
2023-08-03T00:06:01.145Z,17.5
2023-08-03T00:09:01.442Z,17.5
2023-08-03T00:12:01.042Z,17.5
2023-08-03T00:15:01.033Z,17.5
2023-08-03T00:18:01.949Z,17.3
2023-08-03T00:21:01.113Z,17.3
2023-08-03T00:24:01.085Z,17.3
2023-08-03T00:27:01.039Z,17.3
2023-08-03T00:30:01.282Z,17.3
2023-08-03T00:33:01.289Z,17.3
2023-08-03T00:36:01.189Z,17.3
2023-08-03T00:39:01.182Z,17.3
2023-08-03T00:42:01.123Z,17.3
2023-08-03T00:45:01.164Z,17.3
2023-08-03T00:48:01.266Z,17.3
2023-08-03T00:51:01.122Z,17.3
2023-08-03T00:54:01.143Z,17.3
2023-08-03T00:57:01.063Z,17.3
2023-08-03T01:00:01.288Z,17.3
2023-08-03T01:03:01.066Z,17.3
2023-08-03T01:06:01.069Z,17.3
2023-08-03T01:09:01.136Z,17.3
2023-08-03T01:12:01.182Z,17.3
2023-08-03T01:15:01.232Z,17.3
2023-08-03T01:18:01.267Z,16.8
2023-08-03T01:21:01.090Z,16.8
2023-08-03T01:24:01.166Z,16.8
2023-08-03T01:27:01.289Z,16.8
2023-08-03T01:30:01.090Z,16.8
2023-08-03T01:33:01.279Z,16.8
2023-08-03T01:36:01.029Z,16.8
2023-08-03T01:39:01.166Z,16.8
2023-08-03T01:42:01.145Z,16.8
2023-08-03T01:45:01.148Z,16.8
2023-08-03T01:48:01.117Z,16.8
2023-08-03T01:51:01.104Z,16.8
2023-08-03T01:54:01.180Z,16.8
2023-08-03T01:57:01.171Z,16.8
2023-08-03T02:00:01.130Z,16.8
2023-08-03T02:03:01.098Z,16.8
2023-08-03T02:06:01.149Z,16.8
2023-08-03T02:09:01.163Z,16.8
2023-08-03T02:12:01.234Z,16.8
2023-08-03T02:15:01.340Z,16.8
2023-08-03T02:18:01.544Z,16.8
2023-08-03T02:21:01.069Z,16.8
2023-08-03T02:24:01.063Z,16.8
2023-08-03T02:27:01.307Z,16.8
2023-08-03T02:30:01.254Z,16.8
2023-08-03T02:33:01.216Z,16.8
2023-08-03T02:36:01.048Z,16.8
2023-08-03T02:39:01.283Z,16.8
2023-08-03T02:42:01.236Z,16.8
2023-08-03T02:45:01.124Z,16.8
2023-08-03T02:48:01.092Z,16.8
2023-08-03T02:51:01.131Z,17.1
2023-08-03T02:54:01.107Z,17.1
2023-08-03T02:57:01.076Z,17.1
2023-08-03T03:00:01.162Z,17.1
2023-08-03T03:03:01.110Z,17.1
2023-08-03T03:06:01.349Z,17.3
2023-08-03T03:09:01.133Z,17.3
2023-08-03T03:12:01.301Z,17.3
2023-08-03T03:15:01.236Z,17.3
2023-08-03T03:18:01.240Z,17.3
2023-08-03T03:21:01.188Z,17.3
2023-08-03T03:24:01.110Z,17.3
2023-08-03T03:27:01.160Z,17.3
2023-08-03T03:30:01.483Z,17.3
2023-08-03T03:33:01.175Z,17.3
2023-08-03T03:36:01.256Z,17.3
2023-08-03T03:39:01.161Z,17.3
2023-08-03T03:42:01.141Z,17.3
2023-08-03T03:45:01.353Z,17.3
2023-08-03T03:48:01.324Z,17.3
2023-08-03T03:51:01.154Z,17.3
2023-08-03T03:54:01.130Z,17.3
2023-08-03T03:57:01.138Z,17.3
2023-08-03T04:00:01.618Z,17.3
2023-08-03T04:03:01.340Z,17.3
2023-08-03T04:06:01.384Z,17.3
2023-08-03T04:09:01.260Z,17.3
2023-08-03T04:12:01.303Z,17.3
2023-08-03T04:15:01.231Z,17.3
2023-08-03T04:18:01.406Z,17.3
2023-08-03T04:21:01.343Z,17.3
2023-08-03T04:24:01.189Z,17.3
2023-08-03T04:27:01.293Z,17.3
2023-08-03T04:30:01.365Z,17.3
2023-08-03T04:33:01.296Z,17.4
2023-08-03T04:36:01.218Z,17.4
2023-08-03T04:39:01.433Z,17.4
2023-08-03T04:42:01.467Z,17.4
2023-08-03T04:45:01.633Z,17.4
2023-08-03T04:48:01.312Z,17.4
2023-08-03T04:51:01.384Z,17.4
2023-08-03T04:54:01.548Z,17.5
2023-08-03T04:57:01.360Z,17.5
2023-08-03T05:00:01.360Z,17.5
2023-08-03T05:03:01.408Z,17.5
2023-08-03T05:06:04.294Z,17.5
2023-08-03T05:09:01.356Z,17.5
2023-08-03T05:12:01.245Z,17.5
2023-08-03T05:15:01.348Z,17.5
2023-08-03T05:18:01.263Z,17.5
2023-08-03T05:21:01.361Z,17.5
2023-08-03T05:24:01.216Z,17.5
2023-08-03T05:27:04.455Z,17.5
2023-08-03T05:30:01.676Z,17.5
2023-08-03T05:33:01.277Z,17.5
2023-08-03T05:36:01.309Z,17.5
2023-08-03T05:39:01.175Z,17.5
2023-08-03T05:42:01.121Z,17.5
2023-08-03T05:45:01.291Z,17.5
2023-08-03T05:48:01.275Z,17.7
2023-08-03T05:51:01.276Z,17.7
2023-08-03T05:54:01.301Z,17.7
2023-08-03T05:57:01.258Z,17.7
2023-08-03T06:00:01.326Z,17.7
2023-08-03T06:03:05.286Z,17.7
2023-08-03T06:06:01.231Z,17.7
2023-08-03T06:09:01.098Z,17.7
2023-08-03T06:12:01.158Z,17.7
2023-08-03T06:15:01.324Z,17.7
2023-08-03T06:18:01.156Z,17.7
2023-08-03T06:21:01.116Z,17.7
2023-08-03T06:24:01.116Z,17.7
2023-08-03T06:27:01.178Z,17.7
2023-08-03T06:30:01.072Z,17.9
2023-08-03T06:33:01.229Z,17.9
2023-08-03T06:36:01.201Z,17.9
2023-08-03T06:39:01.362Z,17.9
2023-08-03T06:42:01.156Z,17.9
2023-08-03T06:45:01.269Z,17.9
2023-08-03T06:48:01.466Z,17.9
2023-08-03T06:51:01.047Z,17.9
2023-08-03T06:54:01.309Z,17.9
2023-08-03T06:57:01.157Z,18.3
2023-08-03T07:00:01.491Z,18.3
2023-08-03T07:03:01.347Z,18.3
2023-08-03T07:06:01.259Z,18.3
2023-08-03T07:09:01.121Z,18.3
2023-08-03T07:12:01.296Z,18.3
2023-08-03T07:15:01.087Z,18.8
2023-08-03T07:18:01.214Z,18.8
2023-08-03T07:21:01.278Z,18.8
2023-08-03T07:24:01.108Z,18.8
2023-08-03T07:27:01.139Z,19
2023-08-03T07:30:01.229Z,19
2023-08-03T07:33:01.282Z,19
2023-08-03T07:36:01.091Z,19
2023-08-03T07:39:01.075Z,19
2023-08-03T07:42:01.271Z,19
2023-08-03T07:45:01.105Z,19
2023-08-03T07:48:01.338Z,19
2023-08-03T07:51:01.218Z,19
2023-08-03T07:54:01.189Z,19
2023-08-03T07:57:01.072Z,19
2023-08-03T08:00:01.184Z,19.5
2023-08-03T08:03:01.265Z,19.5
2023-08-03T08:06:01.446Z,19.5
2023-08-03T08:09:01.147Z,19.5
2023-08-03T08:12:01.068Z,19.5
2023-08-03T08:15:01.118Z,19.5
2023-08-03T08:18:01.244Z,19.5
2023-08-03T08:21:01.427Z,19.5
2023-08-03T08:24:01.436Z,19.9
2023-08-03T08:27:01.322Z,19.9
2023-08-03T08:30:01.150Z,19.9
2023-08-03T08:33:01.375Z,19.9
2023-08-03T08:36:01.328Z,19.9
2023-08-03T08:39:01.406Z,19.9
2023-08-03T08:42:01.116Z,20.4
2023-08-03T08:45:01.078Z,20.4
2023-08-03T08:57:09.994Z,20.4
2023-08-03T09:00:01.595Z,20.4
2023-08-03T09:03:01.363Z,20.9
2023-08-03T09:09:01.324Z,20.9
2023-08-03T09:12:01.410Z,20.9
2023-08-03T09:15:01.127Z,20.9
2023-08-03T09:18:01.239Z,20.9
2023-08-03T09:27:01.307Z,21.4
2023-08-03T09:30:01.361Z,21.4
2023-08-03T09:33:01.302Z,21.4
2023-08-03T09:36:01.210Z,21.3
2023-08-03T09:39:01.066Z,21.3
2023-08-03T09:42:01.762Z,21.3
2023-08-03T09:48:01.241Z,21.3
2023-08-03T09:51:01.068Z,21.3
2023-08-03T10:00:01.446Z,21
2023-08-03T10:03:01.141Z,21
2023-08-03T10:06:01.202Z,21
2023-08-03T10:09:01.083Z,20.8
2023-08-03T10:12:01.234Z,20.8
2023-08-03T10:15:01.180Z,20.8
2023-08-03T10:18:01.295Z,20.8
2023-08-03T10:21:01.248Z,20.8
2023-08-03T10:24:01.168Z,20.8
2023-08-03T10:27:05.256Z,20.3
2023-08-03T10:30:01.180Z,20.3
2023-08-03T10:33:01.106Z,20.3
2023-08-03T10:36:01.074Z,20.3
2023-08-03T10:39:01.175Z,20.3
2023-08-03T10:42:01.078Z,20.3
2023-08-03T10:45:01.215Z,20.3
2023-08-03T10:48:01.343Z,19.8
2023-08-03T10:51:01.118Z,19.8
2023-08-03T10:54:01.043Z,19.8
2023-08-03T10:57:01.059Z,19.8
2023-08-03T11:00:01.170Z,19.8
2023-08-03T11:03:01.269Z,19.8
2023-08-03T11:06:01.118Z,19.8
2023-08-03T11:09:01.111Z,19.8
2023-08-03T11:12:01.062Z,19.8
2023-08-03T11:15:01.051Z,19.8
2023-08-03T11:18:01.182Z,20
2023-08-03T11:21:01.026Z,20
2023-08-03T11:24:01.680Z,20
2023-08-03T11:27:01.059Z,20
2023-08-03T11:30:01.148Z,20
2023-08-03T11:33:01.245Z,20
2023-08-03T11:36:01.241Z,20
2023-08-03T11:39:01.002Z,20
2023-08-03T11:42:01.146Z,20
2023-08-03T11:45:01.041Z,20.6
2023-08-03T11:48:01.237Z,20.6
2023-08-03T11:51:01.033Z,20.5
2023-08-03T11:54:01.170Z,20.5
2023-08-03T11:57:01.009Z,20.5
2023-08-03T12:00:01.248Z,20.5
2023-08-03T12:03:03.042Z,20.5
2023-08-03T12:06:29.539Z,20.5
2023-08-03T12:09:01.399Z,20.5
2023-08-03T12:12:01.207Z,20.9
2023-08-03T12:15:01.252Z,20.9
2023-08-03T12:18:01.253Z,20.9
2023-08-03T12:21:04.610Z,20.9
2023-08-03T12:24:01.048Z,20.9
2023-08-03T12:30:01.018Z,20.9
2023-08-03T12:33:01.273Z,20.9
2023-08-03T12:36:01.243Z,20.9
2023-08-03T12:39:01.070Z,20.9
2023-08-03T12:42:01.120Z,20.9
2023-08-03T12:45:01.081Z,21.1
2023-08-03T12:48:01.330Z,21.1
2023-08-03T12:51:01.066Z,21.1
2023-08-03T12:54:01.077Z,21.1
2023-08-03T12:57:01.804Z,21
2023-08-03T13:00:01.279Z,21
2023-08-03T13:03:01.163Z,21
2023-08-03T13:06:01.075Z,21
2023-08-03T13:09:01.122Z,21
2023-08-03T13:12:01.060Z,21
2023-08-03T13:15:01.049Z,21
2023-08-03T13:18:01.659Z,21
2023-08-03T13:21:03.277Z,21
2023-08-03T13:24:01.114Z,21
2023-08-03T13:27:01.228Z,21
2023-08-03T13:30:01.074Z,21
2023-08-03T13:33:01.246Z,21
2023-08-03T13:36:01.099Z,20.6
2023-08-03T13:39:01.020Z,20.6
2023-08-03T13:42:01.057Z,20.6
2023-08-03T13:45:01.065Z,20.6
2023-08-03T13:48:01.420Z,20.3
2023-08-03T13:51:01.034Z,20.3
2023-08-03T13:54:01.104Z,20.2
2023-08-03T13:57:01.296Z,20.2
2023-08-03T14:00:03.750Z,20.2
2023-08-03T14:03:01.281Z,20.2
2023-08-03T14:12:01.144Z,20
2023-08-03T14:15:37.551Z,20
2023-08-03T14:18:48.407Z,20
2023-08-03T14:21:00.988Z,20
2023-08-03T14:24:03.103Z,19.7
2023-08-03T14:27:01.102Z,19.7
2023-08-03T14:30:01.105Z,19.7
2023-08-03T14:33:01.178Z,19.7
2023-08-03T14:36:01.045Z,19.7
2023-08-03T14:39:01.179Z,19.7
2023-08-03T14:42:05.457Z,19.7
2023-08-03T14:45:01.107Z,19.5
2023-08-03T14:48:04.861Z,19.5
2023-08-03T14:51:01.255Z,19.5
2023-08-03T14:54:04.215Z,19.5
2023-08-03T14:57:01.158Z,19.5
2023-08-03T15:00:01.606Z,19.5
2023-08-03T15:03:01.426Z,19.5
2023-08-03T15:06:01.075Z,19.5
2023-08-03T15:09:01.013Z,19.5
2023-08-03T15:12:01.036Z,19.5
2023-08-03T15:15:09.254Z,19.5
2023-08-03T15:18:01.665Z,19.5
2023-08-03T15:21:01.288Z,19.5
2023-08-03T15:24:03.310Z,19.5
2023-08-03T15:27:03.001Z,19.5
2023-08-03T15:30:29.678Z,19.5
2023-08-03T15:36:03.307Z,19.5
2023-08-03T15:39:04.020Z,19.5
2023-08-03T15:42:06.007Z,19.5
2023-08-03T15:45:08.704Z,19.5
2023-08-03T15:51:06.150Z,19.8
2023-08-03T15:54:12.910Z,19.8
2023-08-03T15:57:01.383Z,19.8
2023-08-03T16:00:01.209Z,19.8
2023-08-03T16:03:01.059Z,19.8
2023-08-03T16:06:01.023Z,19.8
2023-08-03T16:09:01.018Z,19.8
2023-08-03T16:12:01.300Z,19.8
2023-08-03T16:15:01.032Z,20.1
2023-08-03T16:18:01.050Z,20.1
2023-08-03T16:21:00.955Z,20.1
2023-08-03T16:24:01.146Z,20.1
2023-08-03T16:27:01.408Z,20.1
2023-08-03T16:30:04.084Z,20.3
2023-08-03T16:33:01.481Z,20.3
2023-08-03T16:36:01.136Z,20.3
2023-08-03T16:39:01.146Z,20.3
2023-08-03T16:42:01.044Z,20.3
2023-08-03T16:45:01.149Z,20.3
2023-08-03T16:48:01.651Z,20.3
2023-08-03T16:51:01.075Z,20.3
2023-08-03T16:54:01.076Z,20.3
2023-08-03T16:57:01.016Z,20.3
2023-08-03T17:00:01.321Z,20.5
2023-08-03T17:03:01.117Z,20.5
2023-08-03T17:06:01.051Z,20.5
2023-08-03T17:09:01.025Z,20.5
2023-08-03T17:12:01.075Z,20.5
2023-08-03T17:15:00.980Z,20.5
2023-08-03T17:18:01.124Z,20.5
2023-08-03T17:21:00.961Z,20.5
2023-08-03T17:24:01.105Z,20.5
2023-08-03T17:27:01.079Z,20.6
2023-08-03T17:30:01.037Z,20.6
2023-08-03T17:33:01.354Z,20.6
2023-08-03T17:36:01.032Z,20.6
2023-08-03T17:39:01.031Z,20.6
2023-08-03T17:42:01.059Z,20.6
2023-08-03T17:45:01.024Z,20.6
2023-08-03T17:48:01.068Z,20.6
2023-08-03T17:51:00.968Z,20.6
2023-08-03T17:54:01.021Z,20.6
2023-08-03T17:57:01.098Z,20.6
2023-08-03T18:00:01.194Z,20.6
2023-08-03T18:03:01.310Z,20.6
2023-08-03T18:06:01.093Z,20.4
2023-08-03T18:09:00.990Z,20.4
2023-08-03T18:12:01.121Z,20.4
2023-08-03T18:15:01.029Z,20.4
2023-08-03T18:18:01.774Z,20.4
2023-08-03T18:21:01.041Z,20.2
2023-08-03T18:24:01.015Z,20.2
2023-08-03T18:27:01.077Z,20.2
2023-08-03T18:30:01.016Z,20.2
2023-08-03T18:33:01.101Z,20.1
2023-08-03T18:36:02.134Z,20.1
2023-08-03T18:39:01.159Z,20.1
2023-08-03T18:42:01.100Z,20.1
2023-08-03T18:45:00.954Z,20.1
2023-08-03T18:48:01.056Z,20.1
2023-08-03T18:51:01.011Z,20.1
2023-08-03T18:54:01.063Z,20.1
2023-08-03T18:57:00.987Z,20.1
2023-08-03T19:00:01.085Z,19.8
2023-08-03T19:03:01.188Z,19.8
2023-08-03T19:06:01.154Z,19.8
2023-08-03T19:09:01.028Z,19.8
2023-08-03T19:12:00.982Z,19.8
2023-08-03T19:15:00.989Z,19.8
2023-08-03T19:18:01.165Z,19.7
2023-08-03T19:21:00.967Z,19.7
2023-08-03T19:24:00.937Z,19.6
2023-08-03T19:27:00.983Z,19.6
2023-08-03T19:30:00.995Z,19.6
2023-08-03T19:33:01.217Z,19.5
2023-08-03T19:36:01.103Z,19.5
2023-08-03T19:39:01.045Z,19.5
2023-08-03T19:42:01.042Z,19.5
2023-08-03T19:45:00.993Z,19.5
2023-08-03T19:48:01.139Z,19.5
2023-08-03T19:57:00.993Z,19.2
2023-08-03T20:09:01.157Z,19
2023-08-03T20:12:01.028Z,19
2023-08-03T20:21:00.971Z,19
2023-08-03T20:24:00.992Z,18.9
2023-08-03T20:27:07.164Z,18.9
2023-08-03T20:30:01.833Z,18.9
2023-08-03T20:33:05.706Z,18.9
2023-08-03T20:36:03.041Z,18.9
2023-08-03T20:42:42.804Z,18.8
2023-08-03T20:45:01.634Z,18.8
2023-08-03T20:48:37.028Z,18.8
2023-08-03T20:51:00.998Z,18.8
2023-08-03T20:54:00.986Z,18.8
2023-08-03T20:57:00.964Z,18.7
2023-08-03T21:00:01.223Z,18.7
2023-08-03T21:03:01.255Z,18.7
2023-08-03T21:06:00.994Z,18.7
2023-08-03T21:09:01.048Z,18.7
2023-08-03T21:12:00.962Z,18.7
2023-08-03T21:15:01.050Z,18.7
2023-08-03T21:18:01.046Z,18.6
2023-08-03T21:21:00.973Z,18.6
2023-08-03T21:24:00.926Z,18.6
2023-08-03T21:27:00.996Z,18.6
2023-08-03T21:33:01.041Z,18.5
2023-08-03T21:36:00.999Z,18.5
2023-08-03T21:39:01.034Z,18.5
2023-08-03T21:42:03.616Z,18.5
2023-08-03T21:45:00.977Z,18.5
2023-08-03T21:48:01.053Z,18.5
2023-08-03T21:51:00.955Z,18.5
2023-08-03T21:54:01.016Z,18.5
2023-08-03T21:57:00.976Z,18.5
2023-08-03T22:00:01.707Z,18.5
2023-08-03T22:03:01.033Z,18.5
2023-08-03T22:06:01.000Z,18.1
2023-08-03T22:09:01.038Z,18.1
2023-08-03T22:12:01.116Z,18.1
2023-08-03T22:15:00.921Z,18.1
2023-08-03T22:18:00.982Z,18.1
2023-08-03T22:21:00.945Z,18.1
2023-08-03T22:24:01.028Z,18.1
2023-08-03T22:27:00.956Z,18.1
2023-08-03T22:30:01.052Z,18.1
2023-08-03T22:33:01.106Z,17.9
2023-08-03T22:36:00.990Z,17.9
2023-08-03T22:39:00.945Z,17.9
2023-08-03T22:42:01.028Z,17.9
2023-08-03T22:45:00.909Z,17.9
2023-08-03T22:51:00.910Z,17.8
2023-08-03T22:54:00.932Z,17.8
2023-08-03T22:57:00.917Z,17.8
2023-08-03T23:00:01.007Z,17.8
2023-08-03T23:03:01.182Z,17.8
2023-08-03T23:06:01.010Z,17.6
2023-08-03T23:09:00.988Z,17.6
2023-08-03T23:12:01.024Z,17.6
2023-08-03T23:15:00.965Z,17.6
2023-08-03T23:18:01.050Z,17.6
2023-08-03T23:21:00.957Z,17.6
2023-08-03T23:24:00.943Z,17.6
2023-08-03T23:27:00.921Z,17.5
2023-08-03T23:30:00.993Z,17.5
2023-08-03T23:33:01.212Z,17.5
2023-08-03T23:36:00.998Z,17.5
2023-08-03T23:39:00.973Z,17.5
2023-08-03T23:42:01.041Z,17.5
2023-08-03T23:45:00.952Z,17.5
2023-08-03T23:48:01.039Z,17.5
2023-08-03T23:51:00.977Z,17.4
2023-08-03T23:54:00.936Z,17.4
2023-08-03T23:57:00.992Z,17.4
